RaceTrack home  :  Rankings  :  Races  :  Classes  :  FAQs  :  Help  :  crew.org.nz home

Race Results

Series : Coastal, offshore
division : Coastal Classic
race # : 16
race date : 21-Oct-2016
finishers : 129
< click for series result calculator >

Result options

Select result type :

Results table - Elapsed time order

boat name Rating % against history elapsed Line Corrected Place Design
Frank Racing 1.7055 82.44 07:24:12 1 15:18:59 129 ORMA 60
Taeping 1.3826 102.08 09:07:56 2 12:22:09 45 Grainger 40
Slime 1.3565 98.26 09:18:29 3 12:51:00 96 Bladerunner 44
Kotuku VII 1.2369 100.00 10:12:28 4 12:37:36 59 Roger Hill 20
Sundreamer 1.2215 101.69 10:20:13 5 12:25:00 47 Barker 17.5
Mayhem 1.2098 97.14 10:26:11 6 12:59:54 99 tp52
Viento II 1.2062 96.42 10:28:04 7 13:05:43 103 tp52
Wired 1.1961 97.81 10:33:23 8 12:54:31 98 BBW 52
Temptation iii 1.1929 96.49 10:35:04 9 13:05:07 102 tp52
Awen 1.1815 96.06 10:41:11 10 13:08:37 104 Open 60
Georgia 1.1774 94.31 10:43:27 11 13:23:19 118 BC52
Kia Kaha 52 1.1767 100.00 10:43:50 12 12:37:36 59 tp52
Equilibrium 1.1416 100.10 11:03:37 13 12:36:48 58 Martin 55
Ran Tan II 1.1381 104.27 11:05:38 14 12:06:34 29 Elliott 50 sport
Ave Gitana 1.1353 101.85 11:07:19 15 12:23:51 46 Crowther 40
Akatea 1.1342 99.58 11:07:56 16 12:40:47 84 Cookson 50
Stealth Mission 1.1301 100.00 11:10:22 17 12:37:36 59 Tucker 8.5
V5 1.1299 93.27 11:10:28 18 13:32:14 121 Transpac 52 (m)
Voom 1.1205 99.66 11:16:06 19 12:40:12 82 GBE
Crusader 35 1.1118 105.46 11:21:23 20 11:58:22 22 Elliott 35SS
Anarchy 1.1066 109.53 11:24:35 21 11:31:40 7 YD37
Freedom 1.1060 102.76 11:24:59 22 12:17:12 38 GBE
Steinlager II 1.1041 100.00 11:26:11 23 12:37:36 59 Maxi
Miss Scarlet 1.0923 103.13 11:33:33 24 12:14:36 36 RP 52
Rikki 1.0868 100.42 11:37:04 25 12:34:24 56 RP42
Icebreaker 1.0706 103.72 11:47:39 26 12:10:25 32 Ker 40
Tigre 1.0659 95.27 11:50:43 27 13:15:12 111 Given 8.5
Systems Thunder 1.0656 106.40 11:50:58 28 11:52:00 16 Takei 55
Exodus 1.0600 93.41 11:54:44 29 13:31:03 119 Given 10
2 of 10 1.0577 100.00 11:56:16 30 12:37:36 59 Roland 36
Hupane 1.0505 108.48 12:01:08 31 11:38:20 11 Class 40
Pretty Boy Floyd 1.0323 103.25 12:13:53 32 12:13:45 34 Ross 12
Starlight Express 1.0251 100.83 12:19:02 33 12:31:23 53 Davidson 55
Mojo 1.0041 104.26 12:34:31 34 12:06:40 30 Elliott 12
Taboo 1.0027 117.31 12:35:32 35 10:45:48 3 MacKenzie 9.2
Bullrush 0.9984 102.41 12:38:49 36 12:19:44 42 Elliott 40
Pulse xTC 0.9683 117.51 13:02:22 37 10:44:41 2 TC10
Elysium 0.9626 107.21 13:07:02 38 11:46:38 13 Elliott 1450
Lion New Zealand 0.9626 99.40 13:07:02 38 12:42:09 86 Maxi
Provincial Cowboy 0.9553 105.24 13:13:00 40 11:59:51 23 Ross 40
Titanium 0.9517 100.61 13:16:02 41 12:32:58 54 Stomp 38
Urban Cowboy 0.9506 102.89 13:16:59 42 12:16:19 37 Ross 40
Satelite Spy 0.9497 104.08 13:17:44 43 12:07:54 31 Ross 40
Hijinx 0.9489 104.51 13:18:24 44 12:04:52 26 Z39
Force Eleven 0.9461 102.23 13:20:42 45 12:21:05 43 Young 11
Waka 0.9410 112.53 13:25:07 46 11:13:12 5 t850
Frenzy 0.9393 98.30 13:26:34 47 12:50:43 95 Lambert 35
Activator 0.9258 98.23 13:38:16 48 12:51:16 97 Hauraki 45
Flyer 0.9240 99.71 13:39:51 49 12:39:48 81 Elliott 1350
Charmonet 0.9116 100.93 13:51:03 50 12:30:37 52 First 45

2 3 next

boats per page: